Time;durP1;ratioP1;P1;durP2;ratioP2;P2;SDS_P1;SDS_P2;PMS_P1;PMS_P2;Temp;Humidity;BMP_temperature;BMP_pressure;BME280_temperature;BME280_humidity;BME280_pressure;Samples;Min_cycle;Max_cycle;Signal;HPM_P1;HPM_P2
2022/10/03 00:02:19;;;;;;;0.60;0.10;;;13.80;1.00;;;;;;5042171;28;20446;-73
2022/10/03 00:05:18;;;;;;;0.60;0.10;;;13.90;1.00;;;;;;4990096;28;20443;-72
2022/10/03 00:07:59;;;;;;;0.60;0.20;;;13.90;1.00;;;;;;4956091;28;20486;-72
2022/10/03 00:10:38;;;;;;;0.60;0.10;;;13.90;1.00;;;;;;4970809;28;20497;-72
2022/10/03 00:13:21;;;;;;;0.60;0.10;;;14.00;1.00;;;;;;4979297;28;20448;-73
2022/10/03 00:15:55;;;;;;;0.60;0.10;;;14.00;1.00;;;;;;4988931;28;20525;-72
2022/10/03 00:18:34;;;;;;;0.60;0.10;;;14.00;1.00;;;;;;4989426;28;20516;-72
2022/10/03 00:21:23;;;;;;;0.60;0.10;;;14.00;1.00;;;;;;4990154;28;20477;-71
2022/10/03 00:24:00;;;;;;;0.53;0.10;;;14.00;1.00;;;;;;4978954;28;20450;-72
2022/10/03 00:26:41;;;;;;;0.60;0.10;;;13.90;1.00;;;;;;4982515;28;20461;-72
2022/10/03 00:29:35;;;;;;;0.60;0.10;;;13.90;1.00;;;;;;4988364;28;21038;-72
2022/10/03 00:32:15;;;;;;;0.60;0.10;;;13.90;1.00;;;;;;4981132;28;20449;-71
2022/10/03 00:34:57;;;;;;;0.57;0.10;;;13.80;1.00;;;;;;4989232;28;20445;-72
2022/10/03 00:37:30;;;;;;;0.60;0.10;;;13.70;1.00;;;;;;5031987;28;20521;-73
2022/10/03 00:40:34;;;;;;;0.60;0.10;;;13.70;1.00;;;;;;5031122;28;20475;-72
2022/10/03 00:43:22;;;;;;;0.60;0.10;;;13.70;1.00;;;;;;5028447;28;20451;-72
2022/10/03 00:46:20;;;;;;;0.60;0.10;;;13.60;1.00;;;;;;5031140;28;20470;-72
2022/10/03 00:49:09;;;;;;;0.60;0.10;;;13.50;1.00;;;;;;5020813;28;20500;-71
2022/10/03 00:51:52;;;;;;;0.60;0.10;;;13.50;1.00;;;;;;5051197;28;20520;-72
2022/10/03 00:54:42;;;;;;;0.60;0.10;;;13.40;1.00;;;;;;5048763;28;20450;-72
2022/10/03 00:57:35;;;;;;;0.60;0.10;;;13.40;1.00;;;;;;5049304;28;20450;-74
2022/10/03 01:00:14;;;;;;;0.60;0.10;;;13.20;1.00;;;;;;5050815;28;20998;-72
2022/10/03 01:02:49;;;;;;;0.60;0.10;;;13.20;1.00;;;;;;5032380;28;20528;-73
2022/10/03 01:05:30;;;;;;;0.60;0.10;;;13.20;1.00;;;;;;5041039;28;20438;-70
2022/10/03 01:08:21;;;;;;;0.60;0.10;;;13.00;1.00;;;;;;5051158;28;20520;-72
2022/10/03 01:10:56;;;;;;;0.60;0.10;;;13.00;1.00;;;;;;5038450;28;20463;-72
2022/10/03 01:13:41;;;;;;;0.60;0.10;;;12.90;1.00;;;;;;5054840;28;20434;-72
2022/10/03 01:16:18;;;;;;;0.60;0.10;;;12.90;1.00;;;;;;5055461;28;20434;-72
2022/10/03 01:19:01;;;;;;;0.60;0.10;;;12.80;1.00;;;;;;5054510;28;20455;-72
2022/10/03 01:21:40;;;;;;;0.60;0.10;;;12.70;1.00;;;;;;5050082;28;21013;-72
2022/10/03 01:24:47;;;;;;;0.60;0.20;;;12.70;1.00;;;;;;5054430;28;20434;-73
2022/10/03 01:27:18;;;;;;;0.60;0.10;;;12.50;1.00;;;;;;5039070;28;20448;-72
2022/10/03 01:32:47;;;;;;;0.60;0.10;;;12.40;1.00;;;;;;5053291;28;20470;-72
2022/10/03 01:35:25;;;;;;;0.60;0.10;;;12.50;1.00;;;;;;5045920;28;20962;-72
2022/10/03 01:38:01;;;;;;;0.60;0.10;;;12.60;1.70;;;;;;5033917;28;20542;-72
2022/10/03 01:40:35;;;;;;;0.60;0.10;;;12.60;2.00;;;;;;5036769;28;20508;-72
2022/10/03 01:43:20;;;;;;;0.60;0.10;;;12.70;6.90;;;;;;5053787;28;20507;-72
2022/10/03 01:46:04;;;;;;;0.50;0.10;;;12.70;8.20;;;;;;5051105;28;20482;-72
2022/10/03 01:48:42;;;;;;;0.60;0.10;;;12.80;8.30;;;;;;5034114;28;20491;-72
2022/10/03 01:51:15;;;;;;;0.60;0.10;;;12.90;9.10;;;;;;5040201;28;20477;-72
2022/10/03 01:54:06;;;;;;;0.60;0.10;;;12.90;9.40;;;;;;5052977;28;20481;-72
2022/10/03 01:56:39;;;;;;;0.60;0.10;;;12.90;5.90;;;;;;5048603;28;20482;-72
2022/10/03 01:59:12;;;;;;;0.60;0.10;;;12.90;1.00;;;;;;5034259;28;20521;-73
2022/10/03 02:01:48;;;;;;;0.60;0.10;;;12.90;1.00;;;;;;5033906;28;20502;-72
2022/10/03 02:04:27;;;;;;;0.60;0.17;;;12.80;1.00;;;;;;5033553;28;20443;-72
2022/10/03 02:07:05;;;;;;;0.60;0.10;;;12.80;1.00;;;;;;5044415;28;20826;-72
2022/10/03 02:09:41;;;;;;;0.60;0.10;;;12.60;1.00;;;;;;5041337;28;20483;-72
2022/10/03 02:12:13;;;;;;;0.60;0.10;;;12.60;1.00;;;;;;5045117;28;20848;-73
2022/10/03 02:14:51;;;;;;;0.60;0.10;;;12.60;1.00;;;;;;5053676;28;20825;-72
2022/10/03 02:17:44;;;;;;;0.60;0.10;;;12.50;1.00;;;;;;5039752;28;20457;-72
2022/10/03 02:20:22;;;;;;;0.60;0.10;;;12.50;1.00;;;;;;5034366;28;20483;-71
2022/10/03 02:22:53;;;;;;;0.60;0.10;;;12.40;1.00;;;;;;5047685;28;20451;-72
2022/10/03 02:25:25;;;;;;;0.60;0.10;;;12.30;1.00;;;;;;5053487;28;20500;-72
2022/10/03 02:28:29;;;;;;;0.60;0.10;;;12.20;1.00;;;;;;5034382;28;20444;-72
2022/10/03 02:31:20;;;;;;;0.60;0.10;;;12.30;1.00;;;;;;5034853;28;20439;-72
2022/10/03 02:34:31;;;;;;;0.60;0.10;;;12.30;1.00;;;;;;5046693;28;20439;-72
2022/10/03 02:37:20;;;;;;;0.60;0.10;;;12.30;1.00;;;;;;5011203;28;20452;-72
2022/10/03 02:40:10;;;;;;;0.53;0.10;;;12.40;1.00;;;;;;5051952;28;20506;-72
2022/10/03 02:43:22;;;;;;;0.60;0.10;;;12.40;1.30;;;;;;5052476;28;20458;-72
2022/10/03 02:46:13;;;;;;;0.60;0.10;;;12.50;5.40;;;;;;5051165;28;20447;-72
2022/10/03 02:49:12;;;;;;;0.50;0.10;;;12.50;5.60;;;;;;5032750;28;20467;-72
2022/10/03 02:51:57;;;;;;;0.50;0.10;;;12.50;5.20;;;;;;5031107;28;20460;-72
2022/10/03 02:55:06;;;;;;;2.47;2.33;;;12.50;6.30;;;;;;5032704;28;21194;-72
2022/10/03 02:58:05;;;;;;;0.60;0.10;;;12.50;2.90;;;;;;5033822;28;20481;-72
2022/10/03 03:00:48;;;;;;;0.50;0.10;;;12.60;5.00;;;;;;5032539;28;20475;-72
2022/10/03 03:03:50;;;;;;;0.50;0.10;;;12.60;4.90;;;;;;5032656;28;20452;-72
2022/10/03 03:06:41;;;;;;;0.60;0.10;;;12.60;6.70;;;;;;4997943;28;20513;-72
2022/10/03 03:09:46;;;;;;;0.60;0.10;;;12.60;3.90;;;;;;5033525;28;20525;-72
2022/10/03 03:12:42;;;;;;;0.60;0.37;;;12.60;4.10;;;;;;5049255;28;20516;-72
2022/10/03 03:15:43;;;;;;;0.60;0.10;;;12.60;2.50;;;;;;5052484;28;20915;-72
2022/10/03 03:18:26;;;;;;;0.50;0.10;;;12.60;1.00;;;;;;5026261;28;20462;-72
2022/10/03 03:21:05;;;;;;;0.60;0.10;;;12.60;1.00;;;;;;5050521;28;20785;-72
2022/10/03 03:23:50;;;;;;;0.60;0.10;;;12.60;1.00;;;;;;5049888;28;20489;-72
2022/10/03 03:26:40;;;;;;;0.50;0.10;;;12.60;1.00;;;;;;5049124;28;20479;-72
2022/10/03 03:29:20;;;;;;;0.50;0.10;;;12.60;1.00;;;;;;5051831;28;20478;-72
2022/10/03 03:31:55;;;;;;;0.53;0.10;;;12.60;1.00;;;;;;5051669;28;20933;-72
2022/10/03 03:34:27;;;;;;;0.50;0.10;;;12.50;1.00;;;;;;5050970;28;20533;-73
2022/10/03 03:37:02;;;;;;;0.60;0.10;;;12.50;1.00;;;;;;5045805;28;20997;-73
2022/10/03 03:39:54;;;;;;;0.50;0.10;;;12.50;1.00;;;;;;5038054;28;20888;-72
2022/10/03 03:42:39;;;;;;;0.50;0.10;;;12.50;1.00;;;;;;5036818;28;20450;-72
2022/10/03 03:45:22;;;;;;;0.60;0.10;;;12.50;1.00;;;;;;5043338;28;20447;-71
2022/10/03 03:48:05;;;;;;;0.60;0.10;;;12.50;1.00;;;;;;5044299;28;20477;-73
2022/10/03 03:50:46;;;;;;;0.60;0.10;;;12.50;1.00;;;;;;5051576;28;20474;-71
2022/10/03 03:53:36;;;;;;;0.50;0.10;;;12.50;1.00;;;;;;5047562;28;20483;-72
2022/10/03 03:56:27;;;;;;;0.50;0.10;;;12.50;1.00;;;;;;5019324;28;20450;-72
2022/10/03 03:59:11;;;;;;;0.60;0.10;;;12.50;1.00;;;;;;5036859;28;20876;-72
2022/10/03 04:01:57;;;;;;;0.60;0.10;;;12.40;1.00;;;;;;5051315;28;20438;-72
2022/10/03 04:04:40;;;;;;;0.60;0.10;;;12.50;1.00;;;;;;5051615;28;20451;-73
2022/10/03 04:07:20;;;;;;;0.60;0.10;;;12.50;1.00;;;;;;5044625;28;20483;-72
2022/10/03 04:10:09;;;;;;;0.50;0.10;;;12.50;1.00;;;;;;5047650;28;20492;-73
2022/10/03 04:13:05;;;;;;;0.50;0.10;;;12.50;1.00;;;;;;5051455;28;20451;-73
2022/10/03 04:15:58;;;;;;;0.60;0.30;;;12.50;1.00;;;;;;5050334;28;20443;-72
2022/10/03 04:18:59;;;;;;;0.53;0.10;;;12.50;1.00;;;;;;5034078;28;21098;-72
2022/10/03 04:21:44;;;;;;;0.60;0.10;;;12.50;1.00;;;;;;5033831;28;20520;-72
2022/10/03 04:24:35;;;;;;;0.50;0.10;;;12.50;1.00;;;;;;5051370;28;21013;-72
2022/10/03 04:27:38;;;;;;;0.50;0.10;;;12.50;1.00;;;;;;5044339;28;20443;-72
2022/10/03 04:30:13;;;;;;;0.57;0.10;;;12.50;1.00;;;;;;5028650;28;20482;-72
2022/10/03 04:33:01;;;;;;;0.60;0.10;;;12.50;1.00;;;;;;5050548;28;20481;-72
2022/10/03 04:36:21;;;;;;;0.50;0.10;;;12.50;1.00;;;;;;5034667;28;20456;-72
2022/10/03 04:38:59;;;;;;;0.50;0.10;;;12.60;1.00;;;;;;5064077;22;20918;-75
2022/10/03 04:41:37;;;;;;;0.53;0.10;;;12.60;1.00;;;;;;5055869;28;20446;-75
2022/10/03 04:44:21;;;;;;;0.60;0.10;;;12.60;1.00;;;;;;5051252;28;20443;-75
2022/10/03 04:46:56;;;;;;;0.60;0.10;;;12.60;1.00;;;;;;5056284;28;20849;-75
2022/10/03 04:49:31;;;;;;;0.50;0.10;;;12.60;1.00;;;;;;5063902;28;20906;-75
2022/10/03 04:52:05;;;;;;;0.50;0.10;;;12.60;1.00;;;;;;5061591;28;20480;-75
2022/10/03 04:54:47;;;;;;;0.50;0.10;;;12.60;1.00;;;;;;5074940;28;20437;-75
2022/10/03 04:57:24;;;;;;;0.50;0.10;;;12.60;1.00;;;;;;5064924;28;20863;-74
2022/10/03 05:00:02;;;;;;;0.50;0.10;;;12.60;1.00;;;;;;5055045;28;20470;-73
2022/10/03 05:02:45;;;;;;;0.50;0.10;;;12.60;1.00;;;;;;5064054;28;20507;-74
2022/10/03 05:05:27;;;;;;;0.50;0.10;;;12.60;1.00;;;;;;5074590;28;20478;-73
2022/10/03 05:08:11;;;;;;;0.50;0.10;;;12.60;1.00;;;;;;5063523;28;20445;-75
2022/10/03 05:10:57;;;;;;;0.53;0.17;;;12.60;1.00;;;;;;5054523;28;20477;-75
2022/10/03 05:13:46;;;;;;;0.60;0.10;;;12.60;1.00;;;;;;5046540;28;20839;-74
2022/10/03 05:16:28;;;;;;;0.60;0.10;;;12.50;1.00;;;;;;5054513;28;20490;-75
2022/10/03 05:19:09;;;;;;;0.53;0.10;;;12.50;1.00;;;;;;5073910;28;20469;-75
2022/10/03 05:21:45;;;;;;;0.53;0.10;;;12.50;1.00;;;;;;5065017;28;20470;-75
2022/10/03 05:24:23;;;;;;;0.60;0.10;;;12.50;1.00;;;;;;5054379;28;20470;-75
2022/10/03 05:27:00;;;;;;;0.53;0.10;;;12.50;1.00;;;;;;5057088;28;20949;-75
2022/10/03 05:29:39;;;;;;;0.60;0.10;;;12.50;1.00;;;;;;5074442;28;20457;-75
2022/10/03 05:32:16;;;;;;;0.60;0.20;;;12.50;1.00;;;;;;5073978;28;20477;-75
2022/10/03 05:35:01;;;;;;;0.57;0.10;;;12.50;1.00;;;;;;5072593;28;20812;-74
2022/10/03 05:37:54;;;;;;;0.50;0.10;;;12.40;1.00;;;;;;5067134;28;20489;-74
2022/10/03 05:40:26;;;;;;;0.60;0.10;;;12.40;1.00;;;;;;5067724;28;20547;-75
2022/10/03 05:43:12;;;;;;;0.50;0.10;;;12.40;1.00;;;;;;5074079;28;20446;-76
2022/10/03 05:45:48;;;;;;;0.57;0.20;;;12.40;1.00;;;;;;5055258;28;20964;-76
2022/10/03 05:48:31;;;;;;;0.60;0.10;;;12.40;1.00;;;;;;5068616;28;20453;-75
2022/10/03 05:51:22;;;;;;;0.50;0.10;;;12.40;1.00;;;;;;5074123;28;20485;-75
2022/10/03 05:54:28;;;;;;;0.53;0.10;;;12.40;1.00;;;;;;5034065;28;20455;-75
2022/10/03 05:57:24;;;;;;;0.50;0.10;;;12.50;1.00;;;;;;5042506;28;20443;-74
2022/10/03 06:00:17;;;;;;;0.50;0.10;;;12.50;1.00;;;;;;5059620;28;20462;-74
2022/10/03 06:03:29;;;;;;;0.60;0.10;;;12.40;1.00;;;;;;5054735;28;20512;-76
2022/10/03 06:06:19;;;;;;;0.60;0.10;;;12.50;1.00;;;;;;5065776;28;20964;-74
2022/10/03 06:09:10;;;;;;;0.57;0.10;;;12.50;1.00;;;;;;5034064;28;20802;-74
2022/10/03 06:12:02;;;;;;;0.53;0.10;;;12.50;1.00;;;;;;5047171;28;20827;-74
2022/10/03 06:14:38;;;;;;;0.50;0.10;;;12.50;1.00;;;;;;5056264;28;20847;-74
2022/10/03 06:17:26;;;;;;;0.60;0.10;;;12.60;1.00;;;;;;5065486;28;21088;-76
2022/10/03 06:20:02;;;;;;;0.60;0.10;;;12.60;1.00;;;;;;5054048;28;20454;-73
2022/10/03 06:22:50;;;;;;;0.83;0.83;;;12.60;1.00;;;;;;5069136;28;20431;-74
2022/10/03 06:26:01;;;;;;;0.57;0.10;;;12.60;1.00;;;;;;5068141;28;20449;-74
2022/10/03 06:28:50;;;;;;;0.60;0.20;;;12.60;1.00;;;;;;5053604;28;20504;-75
2022/10/03 06:31:50;;;;;;;0.50;0.10;;;12.60;1.00;;;;;;5053448;28;20589;-76
2022/10/03 06:34:50;;;;;;;0.50;0.10;;;12.60;1.00;;;;;;5053334;28;20470;-75
2022/10/03 06:37:44;;;;;;;0.60;0.30;;;12.60;1.00;;;;;;5052916;28;20442;-75
2022/10/03 06:41:03;;;;;;;0.50;0.10;;;12.60;1.00;;;;;;5052841;28;20984;-75
2022/10/03 06:44:03;;;;;;;0.50;0.10;;;12.60;1.00;;;;;;4990344;28;20592;-75
2022/10/03 06:46:52;;;;;;;0.50;0.10;;;12.70;1.00;;;;;;4979790;28;20957;-75
2022/10/03 06:49:40;;;;;;;0.50;0.10;;;12.70;1.00;;;;;;5041197;28;20470;-74
2022/10/03 06:52:52;;;;;;;0.60;0.10;;;12.60;1.00;;;;;;5050804;28;20889;-75
2022/10/03 06:55:51;;;;;;;0.50;0.10;;;12.70;1.00;;;;;;5036560;28;20458;-74
2022/10/03 06:59:04;;;;;;;0.60;0.10;;;12.90;1.00;;;;;;5056988;28;20446;-76
2022/10/03 07:02:07;;;;;;;0.60;0.10;;;12.90;1.00;;;;;;5073227;28;20437;-76
2022/10/03 07:04:52;;;;;;;0.60;0.10;;;13.00;1.00;;;;;;5036302;28;20457;-76
2022/10/03 07:07:48;;;;;;;0.60;0.10;;;13.10;1.00;;;;;;5054167;28;20449;-75
2022/10/03 07:10:29;;;;;;;0.60;0.10;;;13.10;1.00;;;;;;5062664;28;21004;-77
2022/10/03 07:13:30;;;;;;;0.60;0.10;;;13.20;1.00;;;;;;5052643;28;20895;-76
2022/10/03 07:16:32;;;;;;;0.60;0.10;;;13.20;1.00;;;;;;5050236;28;20496;-75
2022/10/03 07:19:37;;;;;;;0.60;0.10;;;13.30;1.00;;;;;;5054165;28;20523;-75
2022/10/03 07:22:34;;;;;;;0.70;0.53;;;13.30;1.00;;;;;;5068332;28;20476;-74
2022/10/03 07:25:34;;;;;;;0.60;0.10;;;13.40;1.00;;;;;;5057613;28;20450;-74
2022/10/03 07:28:29;;;;;;;0.60;0.10;;;13.40;1.00;;;;;;5036518;28;20451;-74
2022/10/03 07:31:08;;;;;;;0.60;0.10;;;13.50;1.00;;;;;;5010913;28;20437;-75
2022/10/03 07:33:54;;;;;;;0.60;0.10;;;13.50;1.00;;;;;;5071928;28;20434;-74
2022/10/03 07:40:17;;;;;;;0.60;0.10;;;13.30;1.00;;;;;;5045390;28;20477;-75
2022/10/03 07:43:24;;;;;;;0.60;0.10;;;13.30;1.00;;;;;;5050381;28;20465;-75
2022/10/03 07:46:29;;;;;;;0.60;0.10;;;13.30;1.00;;;;;;5071902;28;20450;-74
2022/10/03 07:49:17;;;;;;;0.60;0.10;;;13.40;1.00;;;;;;5072023;28;20457;-74
2022/10/03 07:52:03;;;;;;;0.60;0.10;;;13.40;1.00;;;;;;5072555;28;20473;-75
2022/10/03 07:54:50;;;;;;;0.60;0.10;;;13.40;1.00;;;;;;5071837;28;20445;-75
2022/10/03 07:57:44;;;;;;;0.60;0.10;;;13.40;1.00;;;;;;5070425;28;20824;-72
2022/10/03 08:00:22;;;;;;;0.60;0.10;;;13.50;1.00;;;;;;5033083;28;20506;-75
2022/10/03 08:03:33;;;;;;;0.60;0.10;;;13.50;1.00;;;;;;5048373;28;20514;-75
2022/10/03 08:06:23;;;;;;;0.60;0.10;;;13.50;1.00;;;;;;5049994;28;20941;-75
2022/10/03 08:09:08;;;;;;;0.60;0.10;;;13.50;1.00;;;;;;5051778;28;20458;-76
2022/10/03 08:12:04;;;;;;;0.60;0.10;;;13.50;1.00;;;;;;5051248;28;20446;-77
2022/10/03 08:14:44;;;;;;;0.80;0.63;;;13.50;1.00;;;;;;5047066;28;20462;-74
2022/10/03 08:17:49;;;;;;;1.00;1.00;;;13.50;1.00;;;;;;5051669;28;20503;-73
2022/10/03 08:20:33;;;;;;;0.80;0.53;;;13.50;1.00;;;;;;5052285;28;20984;-76
2022/10/03 08:23:23;;;;;;;0.60;0.10;;;13.50;1.00;;;;;;5055633;28;20496;-75
2022/10/03 08:26:04;;;;;;;0.60;0.10;;;13.60;1.00;;;;;;5057578;28;20472;-75
2022/10/03 08:29:04;;;;;;;2.93;2.43;;;13.80;1.00;;;;;;5055556;28;20458;-75
2022/10/03 08:32:06;;;;;;;2.93;0.83;;;13.80;1.00;;;;;;5055521;28;20446;-75
2022/10/03 08:35:04;;;;;;;1.57;1.47;;;13.80;1.00;;;;;;5057055;28;20492;-73
2022/10/03 08:38:06;;;;;;;0.80;0.50;;;13.90;1.00;;;;;;5058120;28;20952;-75
2022/10/03 08:41:10;;;;;;;0.60;0.10;;;13.90;1.00;;;;;;5075286;28;20643;-74
2022/10/03 08:44:08;;;;;;;0.60;0.10;;;14.00;1.00;;;;;;5074903;28;20445;-74
2022/10/03 08:47:05;;;;;;;0.60;0.10;;;14.10;1.00;;;;;;5056961;28;20496;-74
2022/10/03 08:50:02;;;;;;;0.60;0.10;;;14.20;1.00;;;;;;5055365;28;20481;-73
2022/10/03 08:52:48;;;;;;;0.60;0.10;;;14.20;1.00;;;;;;5054996;28;20514;-75
2022/10/03 08:55:41;;;;;;;0.60;0.13;;;14.30;1.00;;;;;;5052718;28;20540;-75
2022/10/03 08:58:59;;;;;;;0.60;0.10;;;14.40;1.00;;;;;;5045346;28;20462;-74
2022/10/03 09:01:59;;;;;;;0.70;0.60;;;14.40;1.00;;;;;;5054990;28;20940;-75
2022/10/03 09:05:10;;;;;;;0.60;0.20;;;14.50;1.00;;;;;;5060459;28;20804;-74
2022/10/03 09:08:05;;;;;;;0.60;0.10;;;14.50;1.00;;;;;;5053413;28;20862;-74
2022/10/03 09:10:46;;;;;;;0.60;0.10;;;14.60;1.00;;;;;;5053191;28;20508;-75
2022/10/03 09:13:49;;;;;;;0.60;0.10;;;14.70;1.00;;;;;;5034936;28;20487;-75
2022/10/03 09:16:41;;;;;;;0.60;0.10;;;15.10;1.00;;;;;;5050813;28;20948;-76
2022/10/03 09:19:45;;;;;;;0.60;0.10;;;15.20;1.00;;;;;;5064221;28;20469;-74
2022/10/03 09:22:41;;;;;;;0.60;0.10;;;15.30;1.00;;;;;;5051510;28;20446;-75
2022/10/03 09:25:23;;;;;;;0.60;0.10;;;15.50;1.00;;;;;;5056555;28;20457;-75
2022/10/03 09:28:29;;;;;;;0.60;0.10;;;15.50;1.00;;;;;;5058292;28;20446;-74
2022/10/03 09:31:19;;;;;;;0.60;0.10;;;15.50;1.00;;;;;;5056240;28;20975;-74
2022/10/03 09:34:10;;;;;;;0.60;0.10;;;15.50;1.00;;;;;;5050295;28;20486;-74
2022/10/03 09:37:17;;;;;;;0.60;0.10;;;15.50;1.00;;;;;;5052882;28;20648;-75
2022/10/03 09:40:31;;;;;;;0.60;0.10;;;15.50;1.00;;;;;;5034533;28;20900;-74
2022/10/03 09:43:23;;;;;;;0.60;0.10;;;15.40;1.00;;;;;;5035117;28;20447;-74
2022/10/03 09:46:13;;;;;;;0.60;0.10;;;15.40;1.00;;;;;;5066605;28;20445;-75
2022/10/03 09:49:20;;;;;;;0.60;0.10;;;15.50;1.00;;;;;;5056932;28;20454;-74
2022/10/03 09:51:59;;;;;;;0.90;0.73;;;15.50;1.00;;;;;;5035088;28;20470;-74
2022/10/03 09:55:00;;;;;;;0.60;0.10;;;15.60;1.00;;;;;;5038339;28;20478;-75
2022/10/03 09:58:00;;;;;;;0.60;0.10;;;15.70;1.00;;;;;;5053781;28;20442;-75
2022/10/03 10:00:40;;;;;;;0.60;0.20;;;15.80;1.00;;;;;;5050258;28;20494;-75
2022/10/03 10:03:34;;;;;;;1.37;0.83;;;15.90;1.00;;;;;;5055491;28;20474;-75
2022/10/03 10:06:36;;;;;;;0.60;0.10;;;16.00;1.00;;;;;;5048806;28;20533;-76
2022/10/03 10:09:36;;;;;;;0.60;0.10;;;16.30;1.00;;;;;;4994148;28;20481;-76
2022/10/03 10:12:38;;;;;;;0.60;0.10;;;16.30;1.00;;;;;;5052744;28;20455;-74
2022/10/03 10:15:41;;;;;;;0.60;0.10;;;16.30;1.00;;;;;;5054133;28;20442;-75
2022/10/03 10:18:42;;;;;;;0.60;0.10;;;16.20;1.00;;;;;;5052764;28;20446;-73
2022/10/03 10:21:42;;;;;;;0.60;0.10;;;16.20;1.00;;;;;;5054911;28;20450;-74
2022/10/03 10:24:55;;;;;;;0.60;0.10;;;16.20;1.00;;;;;;5053626;28;20507;-74
2022/10/03 10:27:53;;;;;;;0.60;0.10;;;16.20;1.00;;;;;;5053418;28;20443;-73
2022/10/03 10:30:33;;;;;;;0.60;0.10;;;16.20;1.00;;;;;;5052729;28;20454;-75
2022/10/03 10:33:42;;;;;;;0.60;0.10;;;16.20;1.00;;;;;;5071796;28;21052;-75
2022/10/03 10:36:55;;;;;;;0.60;0.10;;;16.20;1.00;;;;;;5073825;28;20441;-74
2022/10/03 10:39:52;;;;;;;0.60;0.10;;;16.40;1.00;;;;;;5079729;22;20500;-72
2022/10/03 10:42:53;;;;;;;0.60;0.10;;;16.50;1.00;;;;;;5046117;28;20446;-73
2022/10/03 10:45:39;;;;;;;0.60;0.10;;;16.60;1.00;;;;;;5049709;28;20545;-73
2022/10/03 10:49:06;;;;;;;0.60;0.10;;;16.80;1.00;;;;;;5051012;28;20804;-72
2022/10/03 10:51:51;;;;;;;0.60;0.20;;;16.70;1.00;;;;;;5025766;28;20502;-73
2022/10/03 10:54:54;;;;;;;0.60;0.10;;;16.60;1.00;;;;;;5026596;28;21058;-72
2022/10/03 10:57:44;;;;;;;0.60;0.10;;;16.60;1.00;;;;;;5029948;28;20447;-72
2022/10/03 11:00:30;;;;;;;0.60;0.10;;;16.60;1.00;;;;;;5028279;28;20464;-73
2022/10/03 11:03:38;;;;;;;0.60;0.10;;;16.60;1.00;;;;;;5020048;28;20445;-72
2022/10/03 11:06:41;;;;;;;0.60;0.10;;;16.60;1.00;;;;;;5024996;28;20458;-73
2022/10/03 11:09:52;;;;;;;0.60;0.10;;;16.60;1.00;;;;;;5027535;28;20549;-72
2022/10/03 11:12:57;;;;;;;0.60;0.10;;;16.70;1.00;;;;;;5021599;28;20463;-71
2022/10/03 11:15:56;;;;;;;0.60;0.10;;;16.80;1.00;;;;;;5032417;28;20466;-72
2022/10/03 11:18:58;;;;;;;0.60;0.10;;;16.90;1.00;;;;;;5015118;28;20460;-72
2022/10/03 11:22:35;;;;;;;0.60;0.20;;;16.90;1.00;;;;;;5023857;28;20489;-73
2022/10/03 11:25:52;;;;;;;0.60;0.10;;;16.90;1.00;;;;;;4945395;29;20886;-73
2022/10/03 11:29:01;;;;;;;0.60;0.10;;;16.80;1.00;;;;;;4945028;28;20448;-74
2022/10/03 11:32:07;;;;;;;0.60;0.10;;;16.80;1.00;;;;;;5022188;28;20448;-72
2022/10/03 11:35:05;;;;;;;0.60;0.10;;;16.80;1.00;;;;;;5020510;28;21042;-73
2022/10/03 11:37:42;;;;;;;0.60;0.10;;;16.90;1.00;;;;;;5022316;28;20498;-73
2022/10/03 11:40:30;;;;;;;0.60;0.10;;;17.00;1.00;;;;;;5020021;28;20485;-73
2022/10/03 11:43:19;;;;;;;0.60;0.10;;;17.00;1.00;;;;;;5025129;28;20443;-73
2022/10/03 11:45:51;;;;;;;0.60;0.10;;;17.00;1.00;;;;;;5032022;28;20517;-73
2022/10/03 11:48:37;;;;;;;0.60;0.10;;;16.90;1.00;;;;;;5031874;28;20447;-74
2022/10/03 11:51:10;;;;;;;0.60;0.10;;;16.90;1.00;;;;;;5024165;28;20502;-73
2022/10/03 11:53:48;;;;;;;0.60;0.10;;;17.00;1.00;;;;;;5026745;28;20483;-73
2022/10/03 11:56:32;;;;;;;0.60;0.10;;;17.10;1.00;;;;;;5027545;28;20521;-73
2022/10/03 11:59:19;;;;;;;0.60;0.10;;;17.50;1.00;;;;;;5031652;28;20451;-73
2022/10/03 12:02:07;;;;;;;0.60;0.10;;;17.50;1.00;;;;;;5031954;28;21049;-73
2022/10/03 12:04:50;;;;;;;0.60;0.10;;;17.60;1.00;;;;;;5031147;28;21046;-74
2022/10/03 12:10:38;;;;;;;0.60;0.10;;;17.60;1.00;;;;;;5021579;28;20826;-73
2022/10/03 12:13:13;;;;;;;0.60;0.10;;;17.60;1.00;;;;;;5013110;28;20478;-72
2022/10/03 12:15:45;;;;;;;0.60;0.20;;;17.50;1.00;;;;;;5024262;28;20443;-73
2022/10/03 12:18:19;;;;;;;0.60;0.10;;;17.50;1.00;;;;;;5033683;28;20493;-72
2022/10/03 12:20:59;;;;;;;0.60;0.10;;;17.50;1.00;;;;;;5033454;28;21001;-72
2022/10/03 12:23:42;;;;;;;0.60;0.10;;;17.40;1.00;;;;;;5031865;28;20498;-71
2022/10/03 12:26:16;;;;;;;0.60;0.10;;;17.40;1.00;;;;;;5031900;28;20447;-73
2022/10/03 12:28:49;;;;;;;0.60;0.10;;;17.30;1.00;;;;;;5031508;28;20524;-72
2022/10/03 12:31:22;;;;;;;0.60;0.10;;;17.30;1.00;;;;;;5032076;28;20501;-72
2022/10/03 12:33:54;;;;;;;0.60;0.10;;;17.20;1.00;;;;;;5032092;28;20475;-72
2022/10/03 12:36:29;;;;;;;0.60;0.10;;;17.20;1.00;;;;;;5031858;28;20482;-71
2022/10/03 12:39:13;;;;;;;0.60;0.10;;;17.30;1.00;;;;;;5031842;28;20528;-71
2022/10/03 12:41:55;;;;;;;0.60;0.10;;;17.30;1.00;;;;;;5031854;28;20451;-72
2022/10/03 12:44:39;;;;;;;0.60;0.10;;;17.30;1.00;;;;;;5028000;28;20424;-72
2022/10/03 12:47:25;;;;;;;0.60;0.20;;;17.30;1.00;;;;;;5031601;28;20459;-74
2022/10/03 12:50:35;;;;;;;0.60;0.10;;;17.40;1.00;;;;;;5031667;28;20965;-74
2022/10/03 12:53:22;;;;;;;0.60;0.10;;;17.40;1.00;;;;;;5031132;28;20501;-75
2022/10/03 12:56:02;;;;;;;0.60;0.10;;;17.50;1.00;;;;;;5030442;28;20483;-74
2022/10/03 12:58:48;;;;;;;0.60;0.10;;;17.60;1.00;;;;;;5017351;28;20444;-74
2022/10/03 13:01:27;;;;;;;0.60;0.10;;;17.60;1.00;;;;;;5024099;28;20867;-73
2022/10/03 13:04:00;;;;;;;0.60;0.10;;;17.60;1.00;;;;;;5028057;28;20450;-75
2022/10/03 13:06:54;;;;;;;0.60;0.10;;;17.60;1.00;;;;;;5030857;28;20452;-74
2022/10/03 13:09:49;;;;;;;0.60;0.10;;;17.60;1.00;;;;;;5028740;28;20525;-73
2022/10/03 13:12:26;;;;;;;0.60;0.10;;;17.60;1.00;;;;;;5022931;28;20443;-75
2022/10/03 13:15:43;;;;;;;0.60;0.10;;;17.60;1.00;;;;;;5031860;28;20490;-74
2022/10/03 13:18:29;;;;;;;0.60;0.10;;;17.50;1.00;;;;;;5024774;28;20501;-75
2022/10/03 13:21:07;;;;;;;0.60;0.10;;;17.50;1.00;;;;;;5033968;28;20801;-74
2022/10/03 13:23:59;;;;;;;0.60;0.10;;;17.50;1.00;;;;;;5034287;28;20490;-75
2022/10/03 13:26:42;;;;;;;0.60;0.10;;;17.40;1.00;;;;;;5027099;28;20991;-75
2022/10/03 13:29:24;;;;;;;0.60;0.10;;;17.40;1.00;;;;;;5032348;28;20459;-75
2022/10/03 13:32:08;;;;;;;0.60;0.10;;;17.40;1.00;;;;;;5034022;28;20654;-76
2022/10/03 13:38:20;;;;;;;0.60;0.10;;;17.40;1.00;;;;;;5024170;28;20455;-76
2022/10/03 13:40:56;;;;;;;0.60;0.10;;;17.50;1.00;;;;;;5033675;28;20475;-74
2022/10/03 13:43:34;;;;;;;0.60;0.10;;;17.50;1.00;;;;;;5031947;28;20534;-75
2022/10/03 13:46:07;;;;;;;0.60;0.10;;;17.50;1.00;;;;;;5031873;28;20454;-75
2022/10/03 13:48:36;;;;;;;0.60;0.10;;;17.40;1.00;;;;;;5031972;28;20649;-75
2022/10/03 13:51:14;;;;;;;0.60;0.10;;;17.40;1.00;;;;;;5032070;28;20513;-75
2022/10/03 13:53:58;;;;;;;0.60;0.10;;;17.40;1.00;;;;;;5032154;28;20872;-75
2022/10/03 13:56:42;;;;;;;0.60;0.10;;;17.40;1.00;;;;;;5029231;28;20454;-75
2022/10/03 13:59:31;;;;;;;0.60;0.10;;;17.30;1.00;;;;;;5032967;28;20479;-76
2022/10/03 14:02:15;;;;;;;0.60;0.20;;;17.30;1.00;;;;;;5038067;28;20493;-75
2022/10/03 14:05:06;;;;;;;0.60;0.10;;;17.30;1.00;;;;;;5014899;28;20532;-74
2022/10/03 14:07:45;;;;;;;0.60;0.10;;;17.20;1.00;;;;;;5020774;28;20836;-75
2022/10/03 14:10:55;;;;;;;0.60;0.10;;;17.20;1.00;;;;;;5031689;28;20475;-75
2022/10/03 14:13:31;;;;;;;0.60;0.10;;;17.20;1.00;;;;;;4986398;28;20464;-74
2022/10/03 14:16:09;;;;;;;0.60;0.10;;;17.20;1.00;;;;;;5030140;28;20521;-75
2022/10/03 14:18:50;;;;;;;0.60;0.10;;;17.20;1.00;;;;;;5032823;28;20493;-74
2022/10/03 14:21:41;;;;;;;0.60;0.10;;;17.20;1.00;;;;;;5032021;28;20444;-75
2022/10/03 14:24:32;;;;;;;0.60;0.20;;;17.20;1.00;;;;;;5028145;28;20512;-75
2022/10/03 14:27:11;;;;;;;0.60;0.10;;;17.20;1.00;;;;;;5030797;28;20459;-73
2022/10/03 14:30:02;;;;;;;0.60;0.10;;;16.90;1.00;;;;;;5032068;28;20965;-77
2022/10/03 14:32:39;;;;;;;0.60;0.10;;;17.10;1.00;;;;;;5032717;28;20459;-76
2022/10/03 14:35:29;;;;;;;0.60;0.10;;;17.20;1.00;;;;;;5037678;28;20569;-75
2022/10/03 14:38:03;;;;;;;0.60;0.10;;;17.20;1.00;;;;;;5033800;28;20945;-76
2022/10/03 14:40:39;;;;;;;0.60;0.10;;;17.20;1.00;;;;;;5033687;28;20988;-76
2022/10/03 14:43:23;;;;;;;0.60;0.10;;;17.20;1.00;;;;;;5033148;28;20446;-77
2022/10/03 14:45:53;;;;;;;0.60;0.10;;;17.20;1.00;;;;;;5033491;28;20498;-76
2022/10/03 14:48:24;;;;;;;0.60;0.10;;;17.20;1.00;;;;;;5034237;28;20428;-76
2022/10/03 14:51:04;;;;;;;0.60;0.10;;;17.20;1.00;;;;;;5033729;28;20470;-76
2022/10/03 14:53:32;;;;;;;0.60;0.10;;;17.30;1.00;;;;;;5033026;28;20443;-76
2022/10/03 14:56:05;;;;;;;0.60;0.10;;;17.30;1.00;;;;;;5033317;28;20521;-75
2022/10/03 14:58:38;;;;;;;0.60;0.10;;;17.30;1.00;;;;;;5033124;28;20486;-75
2022/10/03 15:01:13;;;;;;;0.60;0.10;;;17.30;1.00;;;;;;5032792;28;20485;-73
2022/10/03 15:03:45;;;;;;;0.60;0.10;;;17.40;1.00;;;;;;5033589;28;20528;-75